PWSweather.com
Personal Weather Stations
Station Observations
IVENETOL9
Brugine, BrugineIT 35020

BrugineBrugineIT 35020

Lat: 45.2975, Lon: 11.9962777

Elevation: 19

Station Type: Davis Vantage Pro2 Plus

http://www.meteobrugine.it/

Latest ConditionsUpdated 9:30:32 PM GMT+01:01 Monday, Sep 23, 2019
Currently Today's Max Today's Min Today's Average
Temperature 59.4°F15.2°C 60.2°F15.7°C 55.1°F12.8°C 58.6°F14.8°C
Dew Point 57.7°F14.3°C 58.4°F14.7°C 53.1°F11.7°C 56.8°F13.8°C
Winds Calm Calm Calm -Calm - - Calm Calm
Wind Gusts -- 1.0 mph1.6 kmh - -
Humidity 94% 94% 93% 94%
Pressure 29.90 in1012.5 mb 29.98 in1015.2 mb 29.86 in1011.2 mb -
Precipitation - 0.58 in14.7 mm - -
Hour Temp Dew Point Humidity Winds Wind Gusts Pressure Precip Precip Rate Daily Precip Total
09:30 PM 59.4°F15.2°C 57.7°F14.3°C 94% Calm Calm -- 29.90 in1012.5 mb - 0.01 in0.3 mm 0.58 in14.7 mm
09:15 PM 59.3°F15.2°C 57.6°F14.2°C 94% Calm Calm -- 29.90 in1012.5 mb - 0.00 in0.0 mm 0.58 in14.7 mm
09:00 PM 59.4°F15.2°C 57.7°F14.3°C 94% Calm Calm -- 29.90 in1012.5 mb - 0.01 in0.3 mm 0.58 in14.7 mm
08:45 PM 59.4°F15.2°C 57.7°F14.3°C 94% Calm Calm -- 29.90 in1012.5 mb - 0.01 in0.3 mm 0.58 in14.7 mm
08:30 PM 59.4°F15.2°C 57.7°F14.3°C 94% Calm Calm -- 29.90 in1012.5 mb - 0.00 in0.0 mm 0.57 in14.5 mm
08:15 PM 59.5°F15.3°C 57.8°F14.3°C 94% Calm Calm -- 29.89 in1012.2 mb - 0.00 in0.0 mm 0.57 in14.5 mm
08:00 PM 59.5°F15.3°C 57.8°F14.3°C 94% Calm Calm -- 29.90 in1012.5 mb - 0.00 in0.0 mm 0.57 in14.5 mm
07:45 PM 59.5°F15.3°C 57.8°F14.3°C 94% Calm Calm -- 29.90 in1012.5 mb - 0.00 in0.0 mm 0.57 in14.5 mm
07:30 PM 59.5°F15.3°C 57.8°F14.3°C 94% Calm Calm -- 29.90 in1012.5 mb - 0.00 in0.0 mm 0.57 in14.5 mm
07:15 PM 59.4°F15.2°C 57.7°F14.3°C 94% Calm Calm -- 29.90 in1012.5 mb - 0.00 in0.0 mm 0.57 in14.5 mm
07:00 PM 59.5°F15.3°C 57.8°F14.3°C 94% Calm Calm -- 29.90 in1012.5 mb - 0.00 in0.0 mm 0.57 in14.5 mm
06:45 PM 59.4°F15.2°C 57.7°F14.3°C 94% Calm Calm -- 29.89 in1012.2 mb - 0.00 in0.0 mm 0.57 in14.5 mm
06:30 PM 59.2°F15.1°C 57.5°F14.2°C 94% Calm Calm -- 29.88 in1011.9 mb - 0.00 in0.0 mm 0.57 in14.5 mm
06:15 PM 58.9°F14.9°C 57.2°F14.0°C 94% Calm Calm -- 29.88 in1011.9 mb - 0.00 in0.0 mm 0.57 in14.5 mm
06:00 PM 59.0°F15.0°C 57.3°F14.1°C 94% Calm Calm -- 29.88 in1011.9 mb - 0.00 in0.0 mm 0.57 in14.5 mm
05:45 PM 59.3°F15.2°C 57.6°F14.2°C 94% Calm Calm -- 29.86 in1011.2 mb - 0.00 in0.0 mm 0.57 in14.5 mm
05:30 PM 59.5°F15.3°C 57.8°F14.3°C 94% Calm Calm -- 29.86 in1011.2 mb - 0.00 in0.0 mm 0.57 in14.5 mm
05:16 PM 59.7°F15.4°C 58.0°F14.4°C 94% Calm Calm -- 29.86 in1011.2 mb - 0.00 in0.0 mm 0.57 in14.5 mm
05:00 PM 60.0°F15.6°C 58.3°F14.6°C 94% Calm Calm -- 29.86 in1011.2 mb - 0.00 in0.0 mm 0.57 in14.5 mm
04:45 PM 59.8°F15.4°C 58.1°F14.5°C 94% Calm Calm -- 29.86 in1011.2 mb - 0.00 in0.0 mm 0.57 in14.5 mm
04:30 PM 59.8°F15.4°C 58.1°F14.5°C 94% Calm Calm -- 29.86 in1011.2 mb - 0.00 in0.0 mm 0.57 in14.5 mm
04:15 PM 59.8°F15.4°C 58.1°F14.5°C 94% Calm Calm -- 29.86 in1011.2 mb - 0.00 in0.0 mm 0.57 in14.5 mm
04:00 PM 60.2°F15.7°C 58.4°F14.7°C 94% Calm Calm -- 29.86 in1011.2 mb - 0.00 in0.0 mm 0.57 in14.5 mm
03:45 PM 59.4°F15.2°C 57.7°F14.3°C 94% Calm Calm -- 29.86 in1011.2 mb - 0.00 in0.0 mm 0.57 in14.5 mm
03:30 PM 59.7°F15.4°C 58.0°F14.4°C 94% Calm Calm -- 29.86 in1011.2 mb - 0.00 in0.0 mm 0.57 in14.5 mm
02:30 PM 59.0°F15.0°C 57.3°F14.1°C 94% Calm Calm -- 29.88 in1011.9 mb - 0.00 in0.0 mm 0.57 in14.5 mm
02:15 PM 59.0°F15.0°C 57.3°F14.1°C 94% Calm Calm -- 29.89 in1012.2 mb - 0.01 in0.3 mm 0.57 in14.5 mm
02:00 PM 58.9°F14.9°C 57.2°F14.0°C 94% Calm Calm -- 29.88 in1011.9 mb - 0.01 in0.3 mm 0.56 in14.2 mm
01:45 PM 58.7°F14.8°C 57.0°F13.9°C 94% Calm Calm -- 29.90 in1012.5 mb - 0.00 in0.0 mm 0.55 in14.0 mm
01:30 PM 59.0°F15.0°C 57.3°F14.1°C 94% Calm Calm -- 29.88 in1011.9 mb - 0.01 in0.3 mm 0.55 in14.0 mm
01:15 PM 58.8°F14.9°C 57.1°F13.9°C 94% Calm Calm -- 29.87 in1011.5 mb - 0.08 in2.0 mm 0.55 in14.0 mm
01:00 PM 59.6°F15.3°C 57.5°F14.2°C 93% Calm Calm -- 29.89 in1012.2 mb - 0.00 in0.0 mm 0.47 in11.9 mm
12:45 PM 59.4°F15.2°C 57.7°F14.3°C 94% Calm Calm -- 29.89 in1012.2 mb - 0.00 in0.0 mm 0.47 in11.9 mm
12:30 PM 59.1°F15.1°C 57.1°F13.9°C 93% Calm Calm -- 29.88 in1011.9 mb - 0.00 in0.0 mm 0.47 in11.9 mm
12:15 PM 59.8°F15.4°C 58.1°F14.5°C 94% Calm Calm -- 29.88 in1011.9 mb - 0.00 in0.0 mm 0.47 in11.9 mm
12:00 PM 59.4°F15.2°C 57.7°F14.3°C 94% Calm Calm -- 29.89 in1012.2 mb - 0.00 in0.0 mm 0.47 in11.9 mm
11:45 AM 59.5°F15.3°C 57.8°F14.3°C 94% Calm Calm -- 29.89 in1012.2 mb - 0.00 in0.0 mm 0.47 in11.9 mm
11:30 AM 59.5°F15.3°C 57.8°F14.3°C 94% Calm Calm -- 29.90 in1012.5 mb - 0.00 in0.0 mm 0.47 in11.9 mm
11:15 AM 59.3°F15.2°C 57.6°F14.2°C 94% Calm Calm -- 29.90 in1012.5 mb - 0.01 in0.3 mm 0.47 in11.9 mm
11:00 AM 58.9°F14.9°C 57.2°F14.0°C 94% Calm Calm -- 29.90 in1012.5 mb - 0.00 in0.0 mm 0.47 in11.9 mm
10:45 AM 59.2°F15.1°C 57.5°F14.2°C 94% Calm Calm -- 29.91 in1012.9 mb - 0.03 in0.8 mm 0.47 in11.9 mm
10:30 AM 59.3°F15.2°C 57.6°F14.2°C 94% Calm Calm -- 29.92 in1013.2 mb - 0.00 in0.0 mm 0.43 in10.9 mm
10:15 AM 58.9°F14.9°C 57.2°F14.0°C 94% Calm Calm -- 29.92 in1013.2 mb - 0.00 in0.0 mm 0.43 in10.9 mm
10:00 AM 59.0°F15.0°C 57.3°F14.1°C 94% Calm Calm -- 29.93 in1013.5 mb - 0.00 in0.0 mm 0.43 in10.9 mm
09:45 AM 58.7°F14.8°C 57.0°F13.9°C 94% Calm Calm -- 29.93 in1013.5 mb - 0.00 in0.0 mm 0.43 in10.9 mm
09:30 AM 58.8°F14.9°C 57.1°F13.9°C 94% Calm Calm -- 29.93 in1013.5 mb - 0.00 in0.0 mm 0.43 in10.9 mm
09:15 AM 58.8°F14.9°C 57.1°F13.9°C 94% Calm Calm -- 29.93 in1013.5 mb - 0.00 in0.0 mm 0.43 in10.9 mm
09:00 AM 59.3°F15.2°C 57.6°F14.2°C 94% Calm Calm 1.0 mph1.6 kmh 29.92 in1013.2 mb - 0.00 in0.0 mm 0.43 in10.9 mm
08:45 AM 59.0°F15.0°C 57.3°F14.1°C 94% Calm Calm -- 29.92 in1013.2 mb - 0.10 in2.5 mm 0.43 in10.9 mm
08:30 AM 59.0°F15.0°C 57.0°F13.9°C 93% Calm Calm -- 29.93 in1013.5 mb - 0.31 in7.9 mm 0.36 in9.1 mm
08:15 AM 59.4°F15.2°C 57.7°F14.3°C 94% Calm Calm 1.0 mph1.6 kmh 29.94 in1013.9 mb - 0.06 in1.5 mm 0.06 in1.5 mm
08:00 AM 59.5°F15.3°C 57.8°F14.3°C 94% Calm Calm -- 29.93 in1013.5 mb - 0.00 in0.0 mm 0.01 in0.3 mm
07:45 AM 59.3°F15.2°C 57.6°F14.2°C 94% Calm Calm -- 29.93 in1013.5 mb - 0.00 in0.0 mm 0.01 in0.3 mm
07:30 AM 58.6°F14.8°C 56.9°F13.8°C 94% Calm Calm -- 29.93 in1013.5 mb - 0.00 in0.0 mm 0.01 in0.3 mm
07:15 AM 58.5°F14.7°C 56.8°F13.8°C 94% Calm Calm -- 29.93 in1013.5 mb - 0.00 in0.0 mm 0.01 in0.3 mm
07:00 AM 58.4°F14.7°C 56.7°F13.7°C 94% Calm Calm -- 29.93 in1013.5 mb - 0.00 in0.0 mm 0.01 in0.3 mm
06:45 AM 58.1°F14.5°C 56.4°F13.6°C 94% Calm Calm -- 29.92 in1013.2 mb - 0.00 in0.0 mm 0.01 in0.3 mm
06:30 AM 57.8°F14.3°C 56.1°F13.4°C 94% Calm Calm -- 29.93 in1013.5 mb - 0.00 in0.0 mm 0.01 in0.3 mm
06:15 AM 57.8°F14.3°C 56.1°F13.4°C 94% Calm Calm -- 29.93 in1013.5 mb - 0.00 in0.0 mm 0.01 in0.3 mm
06:00 AM 57.8°F14.3°C 56.1°F13.4°C 94% Calm Calm -- 29.93 in1013.5 mb - 0.00 in0.0 mm 0.01 in0.3 mm
05:45 AM 57.9°F14.4°C 56.2°F13.4°C 94% Calm Calm -- 29.92 in1013.2 mb - 0.00 in0.0 mm 0.01 in0.3 mm
05:30 AM 57.9°F14.4°C 56.2°F13.4°C 94% Calm Calm -- 29.92 in1013.2 mb - 0.00 in0.0 mm 0.01 in0.3 mm
05:15 AM 57.9°F14.4°C 56.2°F13.4°C 94% Calm Calm -- 29.92 in1013.2 mb - 0.00 in0.0 mm 0.01 in0.3 mm
05:00 AM 58.0°F14.4°C 56.3°F13.5°C 94% Calm Calm -- 29.93 in1013.5 mb - 0.01 in0.3 mm 0.01 in0.3 mm
04:45 AM 57.9°F14.4°C 56.2°F13.4°C 94% Calm Calm -- 29.93 in1013.5 mb - 0.00 in0.0 mm 0.00 in0.0 mm
04:30 AM 58.0°F14.4°C 56.3°F13.5°C 94% Calm Calm -- 29.93 in1013.5 mb - 0.00 in0.0 mm 0.00 in0.0 mm
04:15 AM 58.0°F14.4°C 56.3°F13.5°C 94% Calm Calm -- 29.94 in1013.9 mb - 0.00 in0.0 mm 0.00 in0.0 mm
04:00 AM 57.9°F14.4°C 56.2°F13.4°C 94% Calm Calm -- 29.94 in1013.9 mb - 0.00 in0.0 mm 0.00 in0.0 mm
03:45 AM 57.8°F14.3°C 56.1°F13.4°C 94% Calm Calm -- 29.94 in1013.9 mb - 0.00 in0.0 mm 0.00 in0.0 mm
03:30 AM 57.7°F14.3°C 56.0°F13.3°C 94% Calm Calm -- 29.95 in1014.2 mb - 0.00 in0.0 mm 0.00 in0.0 mm
03:15 AM 57.6°F14.2°C 55.9°F13.3°C 94% Calm Calm -- 29.95 in1014.2 mb - 0.00 in0.0 mm 0.00 in0.0 mm
03:00 AM 57.4°F14.1°C 55.7°F13.2°C 94% Calm Calm -- 29.96 in1014.6 mb - 0.00 in0.0 mm 0.00 in0.0 mm
02:45 AM 57.2°F14.0°C 55.5°F13.1°C 94% Calm Calm -- 29.96 in1014.6 mb - 0.00 in0.0 mm 0.00 in0.0 mm
02:30 AM 57.0°F13.9°C 55.3°F12.9°C 94% Calm Calm -- 29.96 in1014.6 mb - 0.00 in0.0 mm 0.00 in0.0 mm
02:15 AM 57.0°F13.9°C 55.3°F12.9°C 94% Calm Calm -- 29.96 in1014.6 mb - 0.00 in0.0 mm 0.00 in0.0 mm
02:00 AM 56.7°F13.7°C 55.0°F12.8°C 94% Calm Calm -- 29.96 in1014.6 mb - 0.00 in0.0 mm 0.00 in0.0 mm
01:45 AM 56.5°F13.6°C 54.8°F12.7°C 94% Calm Calm -- 29.96 in1014.6 mb - 0.00 in0.0 mm 0.00 in0.0 mm
01:30 AM 56.4°F13.6°C 54.7°F12.6°C 94% Calm Calm -- 29.96 in1014.6 mb - 0.00 in0.0 mm 0.00 in0.0 mm
01:15 AM 56.1°F13.4°C 54.4°F12.4°C 94% Calm Calm -- 29.97 in1014.9 mb - 0.00 in0.0 mm 0.00 in0.0 mm
01:00 AM 55.9°F13.3°C 54.2°F12.3°C 94% Calm Calm -- 29.98 in1015.2 mb - 0.00 in0.0 mm 0.00 in0.0 mm
12:45 AM 55.9°F13.3°C 54.2°F12.3°C 94% Calm Calm -- 29.98 in1015.2 mb - 0.00 in0.0 mm 0.00 in0.0 mm
12:30 AM 55.7°F13.2°C 54.0°F12.2°C 94% Calm Calm -- 29.98 in1015.2 mb - 0.00 in0.0 mm 0.00 in0.0 mm
12:15 AM 55.4°F13.0°C 53.7°F12.1°C 94% Calm Calm -- 29.98 in1015.2 mb - 0.00 in0.0 mm 0.00 in0.0 mm
12:00 AM 55.1°F12.8°C 53.1°F11.7°C 93% Calm Calm -- 29.98 in1015.2 mb - 0.00 in0.0 mm 0.00 in0.0 mm